CCGS Sir Wilfrid Laurier — CGJK — position and weather

sailwx.info

Track history (hours):
 
Tides and Currents Weather Stations Pressure Air Temp Water Temp Dewpoint Dewpoint Depression Visibility Wind Speed Wind Dir Waves Ship Positions

Oceanographic research ship CCGS Sir Wilfrid Laurier (Canada)

Detailed information on ship capabilities available from ARCUS's ALIAS (Arctic Logistics Information and Support) project.

Last reported at 2016-Aug-23 12:00 UTC. Time now 2016-Aug-24 04:41 UTC.
Position N 69°24' W 095°06'.

Length 83 m; beam 16.2 m; draft 6 m.

Type: SAR. MMSI: 316052000.

Wind from 340 at 14 knots

Barometer 1012.6 mb
Air temperature 3.9 ° C
Dewpoint 1.7 ° C
Water temperature 7.1 ° C

Date/timePositionNaut miles runAvg speedWind from/ knotsBaromVisibWave heightAir tempDewpointWater temp
2016-Aug-23 12:00N 69°24' W 095°06'12 6.1 340 / 141012.6 3.9 1.7 7.1
2016-Aug-23 10:00N 69°12' W 095°00'6 6.0 010 / 91012.3 6.0 2.5 7.5
2016-Aug-23 09:00N 69°06' W 095°00'1212.0 330 / 71012.1 6.8 4.8 7.3
2016-Aug-23 08:00N 68°54' W 095°00'1212.2 020 / 81012.1 6.9 4.0 7.6
2016-Aug-23 07:00N 68°42' W 095°06'9 8.9 010 / 101012.1 7.6 4.7 8.7
2016-Aug-23 06:00N 68°36' W 095°24'29 9.7 020 / 71012.4 7.1 6.2 7.7
2016-Aug-23 03:00N 68°24' W 096°36'9 8.9 330 / 101012.4 9.3 7.0 9.3
2016-Aug-23 02:00N 68°30' W 096°54'9 8.8 360 / 141012.4 9.4 7.2 9.2
2016-Aug-23 01:00N 68°30' W 097°18'2 2.2 360 / 141012.9 9.4 7.0 7.9
2016-Aug-23 00:00N 68°30' W 097°24'0 0.0 020 / 161012.7 10.1 7.3
2016-Aug-22 22:00N 68°30' W 097°24'0 0.0 010 / 121011.9 10.8 6.7
2016-Aug-22 21:00N 68°30' W 097°24'0 0.0 010 / 51011.6 10.6 6.7
2016-Aug-22 17:00N 68°30' W 097°24'0 0.0 010 / 131010.9 8.0 6.8 6.5
2016-Aug-22 15:00N 68°30' W 097°24'7 3.7 010 / 111010.9 6.7 6.0 6.7
2016-Aug-22 13:00N 68°36' W 097°36'0 0.0 020 / 131010.1 7.5 6.3
2016-Aug-22 12:00N 68°36' W 097°36'0 0.0 020 / 161009.4 7.2 5.9
2016-Aug-22 10:00N 68°36' W 097°36'0 0.0 340 / 61008.6 9.4 5.5
2016-Aug-22 09:00N 68°36' W 097°36'0 0.0 360 / 31008.6 9.0 4.2
2016-Aug-22 08:00N 68°36' W 097°36'0 0.0 030 / 31008.3 9.0 4.5
2016-Aug-22 07:00N 68°36' W 097°36'0 0.0 090 / 41008.2 9.4 5.4
2016-Aug-22 06:00N 68°36' W 097°36'0 0.0 070 / 21007.9 9.4 5.3
2016-Aug-22 05:00N 68°36' W 097°36'0 0.0 130 / 41007.6 9.3 6.7
2016-Aug-22 02:00N 68°36' W 097°36'0 0.0 130 / 91006.9 10.9 3.8
2016-Aug-22 01:00N 68°36' W 097°36'0 0.0 130 / 111007.0 11.4 3.1
2016-Aug-21 23:00N 68°36' W 097°36'0 0.0 120 / 121006.9 11.4 3.8
2016-Aug-21 22:00N 68°36' W 097°36'0 0.0 120 / 111007.0 11.6-5.2
2016-Aug-21 21:00N 68°36' W 097°36'0 0.0 120 / 131007.2 11.0 4.4
2016-Aug-21 19:00N 68°36' W 097°36'0 0.0 120 / 131007.4 9.7 6.6
2016-Aug-21 18:00N 68°36' W 097°36'0 0.0 110 / 141007.7 9.3 7.3
2016-Aug-21 17:00N 68°36' W 097°36'0 0.0 110 / 101008.0 10.5 7.9 7.0
2016-Aug-21 16:00N 68°36' W 097°36'0 0.0 120 / 101008.3 10.7 8.0 7.1
2016-Aug-21 15:00N 68°36' W 097°36'0 0.0 120 / 81008.4 8.6 6.5 7.3
2016-Aug-21 14:00N 68°36' W 097°36'0 0.0 130 / 71008.4 8.1 6.8
2016-Aug-21 13:00N 68°36' W 097°36'0 0.0 110 / 61008.7 7.7 6.7
2016-Aug-21 07:00N 68°36' W 097°36'0 0.0 120 / 101010.0 7.3 6.5
2016-Aug-21 06:00N 68°36' W 097°36'0 0.0 120 / 131010.2 7.3 6.5
2016-Aug-21 05:00N 68°36' W 097°36'0 0.0 120 / 131010.5 7.7 6.4
2016-Aug-21 04:00N 68°36' W 097°36'0 0.0 130 / 141010.6 7.7 6.1
2016-Aug-21 03:00N 68°36' W 097°36'0 0.0 120 / 141010.7 7.9 5.4
2016-Aug-21 02:00N 68°36' W 097°36'0 0.0 130 / 151010.8 8.4 5.3
2016-Aug-21 00:00N 68°36' W 097°36'0 0.0 120 / 171011.1 8.5 5.3
2016-Aug-20 23:00N 68°36' W 097°36'0 0.0 120 / 161011.3 8.3 5.4
2016-Aug-20 22:00N 68°36' W 097°36'0 0.0 120 / 161011.3 8.9 4.8
2016-Aug-20 21:00N 68°36' W 097°36'0 0.0 170 / 91011.4 12.1 0.2
2016-Aug-20 20:00N 68°36' W 097°36'0 0.0 170 / 121011.8 11.5 0.4
2016-Aug-20 18:00N 68°36' W 097°36'0 0.0 160 / 151011.9 10.2 3.0
2016-Aug-20 17:00N 68°36' W 097°36'0 0.0 170 / 141012.0 9.7 3.7
2016-Aug-20 16:00N 68°36' W 097°36'0 0.0 150 / 61012.3 8.6 3.7
2016-Aug-20 14:00N 68°36' W 097°36'0 0.0 150 / 41012.7 6.9 4.6
2016-Aug-20 13:00N 68°36' W 097°36'0 0.0 150 / 41013.1 6.3 5.0
2016-Aug-20 12:00N 68°36' W 097°36'0 0.0 170 / 121013.1 5.9 4.9
2016-Aug-20 11:00N 68°36' W 097°36'0 0.0 170 / 121013.4 5.6 4.6
2016-Aug-20 10:00N 68°36' W 097°36'0 0.0 170 / 131013.7 5.5 4.7
2016-Aug-20 09:00N 68°36' W 097°36'0 0.0 160 / 151014.0 5.4 4.6
2016-Aug-20 08:00N 68°36' W 097°36'0 0.0 160 / 141014.4 5.3 4.4
2016-Aug-20 07:00N 68°36' W 097°36'0 0.0 160 / 161014.7 5.3 4.1
2016-Aug-20 06:00N 68°36' W 097°36'0 0.0 160 / 151015.0 5.5 4.2
2016-Aug-20 05:00N 68°36' W 097°36'0 0.0 170 / 161015.1 6.0 4.5
2016-Aug-20 03:00N 68°36' W 097°36'0 0.0 190 / 91016.1 7.9 4.0 5.8
2016-Aug-20 02:00N 68°36' W 097°36'0 0.0 190 / 91016.3 8.5 3.0 5.8
2016-Aug-20 01:00N 68°36' W 097°36'7 7.4 180 / 131016.4 9.0 1.1 5.9
2016-Aug-20 00:00N 68°30' W 097°24'0 0.0 140 / 131016.9 8.1 4.6
2016-Aug-19 23:00N 68°30' W 097°24'0 0.0 140 / 121017.6 8.1 4.5 7.8
2016-Aug-19 22:00N 68°30' W 097°24'0 0.0 210 / 51018.0 10.8 2.9 8.3
2016-Aug-19 21:00N 68°30' W 097°24'6 3.2 200 / 61018.3 8.9 2.3 8.1
2016-Aug-19 19:00N 68°36' W 097°30'2 1.1 190 / 71018.5 6.8 2.1 5.3
2016-Aug-19 17:00N 68°36' W 097°36'0 0.0 190 / 71019.4 4.8 1.2 6.2
2016-Aug-19 14:00N 68°36' W 097°36'0 0.0 100 / 11020.3 4.2 0.8
2016-Aug-19 13:00N 68°36' W 097°36'0 0.0 070 / 11020.6 4.2 0.8
2016-Aug-19 12:00N 68°36' W 097°36'0 0.0 060 / 31020.5 2.9 0.9
2016-Aug-19 11:00N 68°36' W 097°36'0 0.0 060 / 31020.6 2.4 0.4
2016-Aug-19 10:00N 68°36' W 097°36'0 0.0 040 / 41020.4 1.9 0.5
2016-Aug-19 09:00N 68°36' W 097°36'0 0.0 360 / 31020.4 2.0 0.7
2016-Aug-19 08:00N 68°36' W 097°36'0 0.0 360 / 41020.2 1.9 0.2
2016-Aug-19 07:00N 68°36' W 097°36'0 0.0 350 / 61020.4 2.4 0.4
2016-Aug-19 06:00N 68°36' W 097°36'0 0.0 350 / 71020.5 2.7 0.2
2016-Aug-19 05:00N 68°36' W 097°36'0 0.0 360 / 91020.6 2.8-0.2
2016-Aug-19 04:00N 68°36' W 097°36'0 0.0 350 / 71020.5 2.6-0.6
2016-Aug-19 03:00N 68°36' W 097°36'0 0.0 350 / 121020.3 2.7-0.6
2016-Aug-19 02:00N 68°36' W 097°36'0 0.0 010 / 131020.0 3.1-0.3
2016-Aug-19 01:00N 68°36' W 097°36'0 0.0 010 / 131019.9 3.6 0.1 6.8
2016-Aug-19 00:00N 68°36' W 097°36'0 0.0 010 / 171019.4 3.7 0.2 6.8
2016-Aug-18 23:00N 68°36' W 097°36'2 2.2 010 / 201019.0 3.8 0.3 6.7
2016-Aug-18 22:00N 68°36' W 097°42'0 0.0 340 / 71018.8 3.7 0.2
2016-Aug-18 19:00N 68°36' W 097°42'0 0.0 350 / 211017.8 3.0 0.1 6.9
2016-Aug-18 17:00N 68°36' W 097°42'0 0.0 350 / 181017.0 2.7 0.2 7.2
2016-Aug-18 15:00N 68°36' W 097°42'7 7.4 340 / 181016.8 2.6 1.0 6.8
2016-Aug-18 14:00N 68°42' W 097°54'1212.5 360 / 181016.1 2.7 1.1 6.2
2016-Aug-18 13:00N 68°36' W 098°24'9 8.8 340 / 221016.0 2.8 1.4 8.6
2016-Aug-18 12:00N 68°36' W 098°48'0 0.0 360 / 251015.7 2.5 1.2
2016-Aug-18 10:00N 68°36' W 098°48'0 0.0 350 / 241014.9 3.6 2.9
2016-Aug-18 07:00N 68°36' W 098°48'0 0.0 350 / 191013.9 4.5 3.5
2016-Aug-18 06:00N 68°36' W 098°48'0 0.0 350 / 191013.4 4.5 3.4
2016-Aug-18 05:00N 68°36' W 098°48'0 0.0 350 / 191012.9 4.6 3.2
2016-Aug-18 02:00N 68°36' W 098°48'13 3.3 360 / 211012.1 5.3 3.6 8.8
2016-Aug-17 22:00N 68°36' W 099°24'9 8.9 340 / 161011.1 5.5 4.4 7.3
2016-Aug-17 21:00N 68°30' W 099°42'9 8.8 010 / 191010.6 4.5 4.3 7.4
2016-Aug-17 20:00N 68°30' W 100°06'1514.9 010 / 191010.0 5.1 4.9 7.6
2016-Aug-17 19:00N 68°18' W 100°30'27 9.0 020 / 171009.7 6.1 6.0 8.4
2016-Aug-17 16:00N 68°30' W 101°36'4 4.4 020 / 141009.8 5.7 5.5 9.3
2016-Aug-17 15:00N 68°30' W 101°48'0 0.0 040 / 131009.5 6.4 6.2 8.6
2016-Aug-17 13:00N 68°30' W 101°48'7 6.6 030 / 151008.6 7.5 6.5 9.2
2016-Aug-17 12:00N 68°30' W 102°06'4 4.4 050 / 141008.4 8.5 6.5 8.9
2016-Aug-17 11:00N 68°30' W 102°18'21 6.9 010 / 91008.0 8.8 7.3 9.3
2016-Aug-17 08:00N 68°36' W 103°12'3110.3 060 / 61007.2 9.5 8.4 9.8
2016-Aug-17 05:00N 68°48' W 104°30'9 8.7 150 / 111006.1 10.910.7 9.4
2016-Aug-17 04:00N 68°48' W 104°54'1110.5 310 / 121005.9 10.410.1 9.5
2016-Aug-17 03:00N 68°54' W 105°18'6 6.4 300 / 111005.7 10.910.7 9.1
2016-Aug-17 02:00N 69°00' W 105°12'9 8.8 310 / 111005.1 12.511.210.3
2016-Aug-17 01:00N 69°06' W 104°54'4 4.3 320 / 91005.0 15.612.611.6
2016-Aug-17 00:00N 69°06' W 105°06'0 0.0 300 / 91004.9 15.512.6
2016-Aug-16 23:00N 69°06' W 105°06'0 0.0 270 / 91004.6 14.912.4
2016-Aug-16 20:00N 69°06' W 105°06'0 0.0 340 / 91003.9 16.512.3
2016-Aug-16 18:00N 69°06' W 105°06'0 0.0 320 / 51003.5 13.712.6
2016-Aug-16 17:00N 69°06' W 105°06'0 0.0 340 / 101003.2 12.512.1
2016-Aug-16 15:00N 69°06' W 105°06'0 0.0 320 / 101002.8 11.811.7
2016-Aug-16 13:00N 69°06' W 105°06'0 0.0 270 / 61002.6 12.611.9
2016-Aug-16 12:00N 69°06' W 105°06'0 0.0 220 / 11002.3 12.211.0
2016-Aug-16 11:00N 69°06' W 105°06'0 0.0 250 / 51002.4 12.210.8
2016-Aug-16 09:00N 69°06' W 105°06'0 0.0 240 / 21002.4 13.211.1
2016-Aug-16 08:00N 69°06' W 105°06'0 0.0 240 / 11002.5 14.111.8
2016-Aug-16 07:00N 69°06' W 105°06'0 0.0 210 / 41002.6 14.411.6
2016-Aug-16 06:00N 69°06' W 105°06'0 0.0 200 / 81002.7 15.411.4
2016-Aug-16 04:00N 69°06' W 105°06'0 0.0 150 / 121003.2 13.611.9
2016-Aug-16 03:00N 69°06' W 105°06'0 0.0 160 / 151003.3 15.012.5
2016-Aug-16 00:00N 69°06' W 105°06'0 0.0 160 / 171004.6 17.814.0
2016-Aug-15 23:00N 69°06' W 105°06'0 0.0 160 / 201004.7 18.213.9
2016-Aug-15 22:00N 69°06' W 105°06'0 0.0 150 / 221005.0 17.514.0
2016-Aug-15 20:00N 69°06' W 105°06'0 0.0 160 / 181005.8 18.713.8
2016-Aug-15 19:00N 69°06' W 105°06'0 0.0 140 / 141006.2 16.813.5
2016-Aug-15 18:00N 69°06' W 105°06'0 0.0 150 / 191006.4 16.013.0
2016-Aug-15 17:00N 69°06' W 105°06'0 0.0 150 / 141006.7 15.212.6
2016-Aug-15 16:00N 69°06' W 105°06'0 0.0 140 / 131007.1 14.612.3
2016-Aug-15 15:00N 69°06' W 105°06'0 0.0 140 / 121007.6 12.911.7
2016-Aug-15 14:00N 69°06' W 105°06'0 0.0 130 / 71008.1 11.811.0
2016-Aug-15 13:00N 69°06' W 105°06'0 0.0 120 / 71008.5 10.910.5
2016-Aug-15 12:00N 69°06' W 105°06'0 0.0 110 / 41008.6 10.610.1
2016-Aug-15 11:00N 69°06' W 105°06'0 0.0 140 / 81008.9 10.0 9.8
2016-Aug-15 10:00N 69°06' W 105°06'0 0.0 140 / 81009.2 10.0 9.9
2016-Aug-15 09:00N 69°06' W 105°06'0 0.0 140 / 81009.2 9.9 9.8
2016-Aug-15 07:00N 69°06' W 105°06'0 0.0 130 / 101009.4 10.1 9.9
2016-Aug-15 06:00N 69°06' W 105°06'0 0.0 140 / 71009.9 10.4 9.5
2016-Aug-15 04:00N 69°06' W 105°06'0 0.0 1010.2 12.5 9.4
2016-Aug-15 03:00N 69°06' W 105°06'0 0.0 240 / 31010.1 13.5 9.3
2016-Aug-15 01:00N 69°06' W 105°06'0 0.0 240 / 71010.3 13.9 9.0
2016-Aug-15 00:00N 69°06' W 105°06'0 0.0 230 / 81010.5 14.0 9.7
2016-Aug-14 23:00N 69°06' W 105°06'0 0.0 130 / 61010.6 16.8 7.4
2016-Aug-14 21:00N 69°06' W 105°06'0 0.0 130 / 51011.1 14.9 7.810.2
2016-Aug-14 20:00N 69°06' W 105°06'0 0.0 150 / 41011.4 14.9 9.010.1
2016-Aug-14 19:00N 69°06' W 105°06'4 4.3 060 / 51011.4 14.2 9.3 9.7
2016-Aug-14 18:00N 69°06' W 104°54'6 6.0 070 / 81011.7 13.0 9.2 9.2
2016-Aug-14 17:00N 69°00' W 104°54'6 2.2 060 / 101011.6 11.5 9.2 8.9
2016-Aug-14 14:00N 69°00' W 105°12'6 6.4 070 / 81012.3 9.2 8.3 8.4
2016-Aug-14 13:00N 68°54' W 105°18'0 0.0 040 / 41012.4 8.2 7.8
2016-Aug-14 10:00N 68°54' W 105°18'0 0.0 060 / 141012.5 8.7 8.0
2016-Aug-14 09:00N 68°54' W 105°18'0 0.0 060 / 141012.8 8.9 8.3
2016-Aug-14 08:00N 68°54' W 105°18'0 0.0 040 / 111012.9 8.9 7.9
2016-Aug-14 07:00N 68°54' W 105°18'0 0.0 060 / 131013.1 9.2 7.2
2016-Aug-14 06:00N 68°54' W 105°18'0 0.0 040 / 91013.4 9.5 7.5
2016-Aug-14 05:00N 68°54' W 105°18'0 0.0 060 / 81013.5 9.7 7.1
2016-Aug-14 03:00N 68°54' W 105°18'0 0.0 070 / 91013.4 9.8 7.4
2016-Aug-14 02:00N 68°54' W 105°18'0 0.0 060 / 171013.4 10.1 7.4
2016-Aug-14 00:00N 68°54' W 105°18'0 0.0 060 / 191013.5 10.1 7.5 8.2
2016-Aug-13 23:00N 68°54' W 105°18'2 1.1 060 / 161013.7 9.8 7.8 8.2
2016-Aug-13 21:00N 68°54' W 105°24'9 8.6 070 / 171013.7 9.5 7.7 8.6
2016-Aug-13 20:00N 68°54' W 105°48'19 9.7 080 / 161013.8 9.2 7.6 8.8
2016-Aug-13 18:00N 68°54' W 106°42'3110.3 070 / 181013.4 8.6 8.5 9.8
2016-Aug-13 15:00N 68°48' W 108°06'1110.6 060 / 241012.9 9.2 8.8 9.9
2016-Aug-13 14:00N 68°42' W 108°30'   060 / 241013.1 9.3 8.810.1
Track history (hours):
 
Tides and Currents Weather Stations Pressure Air Temp Water Temp Dewpoint Dewpoint Depression Visibility Wind Speed Wind Dir Waves Ship Positions

Oceanographic research ship CCGS Sir Wilfrid Laurier (Canada)

Detailed information on ship capabilities available from ARCUS's ALIAS (Arctic Logistics Information and Support) project.

Last reported at 2016-Aug-23 12:00 UTC. Time now 2016-Aug-24 04:41 UTC.
Position N 69°24' W 095°06'.

Length 83 m; beam 16.2 m; draft 6 m.

Type: SAR. MMSI: 316052000.

Wind from 340 at 14 knots

Barometer 1012.6 mb
Air temperature 3.9 ° C
Dewpoint 1.7 ° C
Water temperature 7.1 ° C

Date/timePositionNaut miles runAvg speedWind from/ knotsBaromVisibWave heightAir tempDewpointWater temp
2016-Aug-23 12:00N 69°24' W 095°06'12 6.1 340 / 141012.6 3.9 1.7 7.1
2016-Aug-23 10:00N 69°12' W 095°00'6 6.0 010 / 91012.3 6.0 2.5 7.5
2016-Aug-23 09:00N 69°06' W 095°00'1212.0 330 / 71012.1 6.8 4.8 7.3
2016-Aug-23 08:00N 68°54' W 095°00'1212.2 020 / 81012.1 6.9 4.0 7.6
2016-Aug-23 07:00N 68°42' W 095°06'9 8.9 010 / 101012.1 7.6 4.7 8.7
2016-Aug-23 06:00N 68°36' W 095°24'29 9.7 020 / 71012.4 7.1 6.2 7.7
2016-Aug-23 03:00N 68°24' W 096°36'9 8.9 330 / 101012.4 9.3 7.0 9.3
2016-Aug-23 02:00N 68°30' W 096°54'9 8.8 360 / 141012.4 9.4 7.2 9.2
2016-Aug-23 01:00N 68°30' W 097°18'2 2.2 360 / 141012.9 9.4 7.0 7.9
2016-Aug-23 00:00N 68°30' W 097°24'0 0.0 020 / 161012.7 10.1 7.3
2016-Aug-22 22:00N 68°30' W 097°24'0 0.0 010 / 121011.9 10.8 6.7
2016-Aug-22 21:00N 68°30' W 097°24'0 0.0 010 / 51011.6 10.6 6.7
2016-Aug-22 17:00N 68°30' W 097°24'0 0.0 010 / 131010.9 8.0 6.8 6.5
2016-Aug-22 15:00N 68°30' W 097°24'7 3.7 010 / 111010.9 6.7 6.0 6.7
2016-Aug-22 13:00N 68°36' W 097°36'0 0.0 020 / 131010.1 7.5 6.3
2016-Aug-22 12:00N 68°36' W 097°36'0 0.0 020 / 161009.4 7.2 5.9
2016-Aug-22 10:00N 68°36' W 097°36'0 0.0 340 / 61008.6 9.4 5.5
2016-Aug-22 09:00N 68°36' W 097°36'0 0.0 360 / 31008.6 9.0 4.2
2016-Aug-22 08:00N 68°36' W 097°36'0 0.0 030 / 31008.3 9.0 4.5
2016-Aug-22 07:00N 68°36' W 097°36'0 0.0 090 / 41008.2 9.4 5.4
2016-Aug-22 06:00N 68°36' W 097°36'0 0.0 070 / 21007.9 9.4 5.3
2016-Aug-22 05:00N 68°36' W 097°36'0 0.0 130 / 41007.6 9.3 6.7
2016-Aug-22 02:00N 68°36' W 097°36'0 0.0 130 / 91006.9 10.9 3.8
2016-Aug-22 01:00N 68°36' W 097°36'0 0.0 130 / 111007.0 11.4 3.1
2016-Aug-21 23:00N 68°36' W 097°36'0 0.0 120 / 121006.9 11.4 3.8
2016-Aug-21 22:00N 68°36' W 097°36'0 0.0 120 / 111007.0 11.6-5.2
2016-Aug-21 21:00N 68°36' W 097°36'0 0.0 120 / 131007.2 11.0 4.4
2016-Aug-21 19:00N 68°36' W 097°36'0 0.0 120 / 131007.4 9.7 6.6
2016-Aug-21 18:00N 68°36' W 097°36'0 0.0 110 / 141007.7 9.3 7.3
2016-Aug-21 17:00N 68°36' W 097°36'0 0.0 110 / 101008.0 10.5 7.9 7.0
2016-Aug-21 16:00N 68°36' W 097°36'0 0.0 120 / 101008.3 10.7 8.0 7.1
2016-Aug-21 15:00N 68°36' W 097°36'0 0.0 120 / 81008.4 8.6 6.5 7.3
2016-Aug-21 14:00N 68°36' W 097°36'0 0.0 130 / 71008.4 8.1 6.8
2016-Aug-21 13:00N 68°36' W 097°36'0 0.0 110 / 61008.7 7.7 6.7
2016-Aug-21 07:00N 68°36' W 097°36'0 0.0 120 / 101010.0 7.3 6.5
2016-Aug-21 06:00N 68°36' W 097°36'0 0.0 120 / 131010.2 7.3 6.5
2016-Aug-21 05:00N 68°36' W 097°36'0 0.0 120 / 131010.5 7.7 6.4
2016-Aug-21 04:00N 68°36' W 097°36'0 0.0 130 / 141010.6 7.7 6.1
2016-Aug-21 03:00N 68°36' W 097°36'0 0.0 120 / 141010.7 7.9 5.4
2016-Aug-21 02:00N 68°36' W 097°36'0 0.0 130 / 151010.8 8.4 5.3
2016-Aug-21 00:00N 68°36' W 097°36'0 0.0 120 / 171011.1 8.5 5.3
2016-Aug-20 23:00N 68°36' W 097°36'0 0.0 120 / 161011.3 8.3 5.4
2016-Aug-20 22:00N 68°36' W 097°36'0 0.0 120 / 161011.3 8.9 4.8
2016-Aug-20 21:00N 68°36' W 097°36'0 0.0 170 / 91011.4 12.1 0.2
2016-Aug-20 20:00N 68°36' W 097°36'0 0.0 170 / 121011.8 11.5 0.4
2016-Aug-20 18:00N 68°36' W 097°36'0 0.0 160 / 151011.9 10.2 3.0
2016-Aug-20 17:00N 68°36' W 097°36'0 0.0 170 / 141012.0 9.7 3.7
2016-Aug-20 16:00N 68°36' W 097°36'0 0.0 150 / 61012.3 8.6 3.7
2016-Aug-20 14:00N 68°36' W 097°36'0 0.0 150 / 41012.7 6.9 4.6
2016-Aug-20 13:00N 68°36' W 097°36'0 0.0 150 / 41013.1 6.3 5.0
2016-Aug-20 12:00N 68°36' W 097°36'0 0.0 170 / 121013.1 5.9 4.9
2016-Aug-20 11:00N 68°36' W 097°36'0 0.0 170 / 121013.4 5.6 4.6
2016-Aug-20 10:00N 68°36' W 097°36'0 0.0 170 / 131013.7 5.5 4.7
2016-Aug-20 09:00N 68°36' W 097°36'0 0.0 160 / 151014.0 5.4 4.6
2016-Aug-20 08:00N 68°36' W 097°36'0 0.0 160 / 141014.4 5.3 4.4
2016-Aug-20 07:00N 68°36' W 097°36'0 0.0 160 / 161014.7 5.3 4.1
2016-Aug-20 06:00N 68°36' W 097°36'0 0.0 160 / 151015.0 5.5 4.2
2016-Aug-20 05:00N 68°36' W 097°36'0 0.0 170 / 161015.1 6.0 4.5
2016-Aug-20 03:00N 68°36' W 097°36'0 0.0 190 / 91016.1 7.9 4.0 5.8
2016-Aug-20 02:00N 68°36' W 097°36'0 0.0 190 / 91016.3 8.5 3.0 5.8
2016-Aug-20 01:00N 68°36' W 097°36'7 7.4 180 / 131016.4 9.0 1.1 5.9
2016-Aug-20 00:00N 68°30' W 097°24'0 0.0 140 / 131016.9 8.1 4.6
2016-Aug-19 23:00N 68°30' W 097°24'0 0.0 140 / 121017.6 8.1 4.5 7.8
2016-Aug-19 22:00N 68°30' W 097°24'0 0.0 210 / 51018.0 10.8 2.9 8.3
2016-Aug-19 21:00N 68°30' W 097°24'6 3.2 200 / 61018.3 8.9 2.3 8.1
2016-Aug-19 19:00N 68°36' W 097°30'2 1.1 190 / 71018.5 6.8 2.1 5.3
2016-Aug-19 17:00N 68°36' W 097°36'0 0.0 190 / 71019.4 4.8 1.2 6.2
2016-Aug-19 14:00N 68°36' W 097°36'0 0.0 100 / 11020.3 4.2 0.8
2016-Aug-19 13:00N 68°36' W 097°36'0 0.0 070 / 11020.6 4.2 0.8
2016-Aug-19 12:00N 68°36' W 097°36'0 0.0 060 / 31020.5 2.9 0.9
2016-Aug-19 11:00N 68°36' W 097°36'0 0.0 060 / 31020.6 2.4 0.4
2016-Aug-19 10:00N 68°36' W 097°36'0 0.0 040 / 41020.4 1.9 0.5
2016-Aug-19 09:00N 68°36' W 097°36'0 0.0 360 / 31020.4 2.0 0.7
2016-Aug-19 08:00N 68°36' W 097°36'0 0.0 360 / 41020.2 1.9 0.2
2016-Aug-19 07:00N 68°36' W 097°36'0 0.0 350 / 61020.4 2.4 0.4
2016-Aug-19 06:00N 68°36' W 097°36'0 0.0 350 / 71020.5 2.7 0.2
2016-Aug-19 05:00N 68°36' W 097°36'0 0.0 360 / 91020.6 2.8-0.2
2016-Aug-19 04:00N 68°36' W 097°36'0 0.0 350 / 71020.5 2.6-0.6
2016-Aug-19 03:00N 68°36' W 097°36'0 0.0 350 / 121020.3 2.7-0.6
2016-Aug-19 02:00N 68°36' W 097°36'0 0.0 010 / 131020.0 3.1-0.3
2016-Aug-19 01:00N 68°36' W 097°36'0 0.0 010 / 131019.9 3.6 0.1 6.8
2016-Aug-19 00:00N 68°36' W 097°36'0 0.0 010 / 171019.4 3.7 0.2 6.8
2016-Aug-18 23:00N 68°36' W 097°36'2 2.2 010 / 201019.0 3.8 0.3 6.7
2016-Aug-18 22:00N 68°36' W 097°42'0 0.0 340 / 71018.8 3.7 0.2
2016-Aug-18 19:00N 68°36' W 097°42'0 0.0 350 / 211017.8 3.0 0.1 6.9
2016-Aug-18 17:00N 68°36' W 097°42'0 0.0 350 / 181017.0 2.7 0.2 7.2
2016-Aug-18 15:00N 68°36' W 097°42'7 7.4 340 / 181016.8 2.6 1.0 6.8
2016-Aug-18 14:00N 68°42' W 097°54'1212.5 360 / 181016.1 2.7 1.1 6.2
2016-Aug-18 13:00N 68°36' W 098°24'9 8.8 340 / 221016.0 2.8 1.4 8.6
2016-Aug-18 12:00N 68°36' W 098°48'0 0.0 360 / 251015.7 2.5 1.2
2016-Aug-18 10:00N 68°36' W 098°48'0 0.0 350 / 241014.9 3.6 2.9
2016-Aug-18 07:00N 68°36' W 098°48'0 0.0 350 / 191013.9 4.5 3.5
2016-Aug-18 06:00N 68°36' W 098°48'0 0.0 350 / 191013.4 4.5 3.4
2016-Aug-18 05:00N 68°36' W 098°48'0 0.0 350 / 191012.9 4.6 3.2
2016-Aug-18 02:00N 68°36' W 098°48'13 3.3 360 / 211012.1 5.3 3.6 8.8
2016-Aug-17 22:00N 68°36' W 099°24'9 8.9 340 / 161011.1 5.5 4.4 7.3
2016-Aug-17 21:00N 68°30' W 099°42'9 8.8 010 / 191010.6 4.5 4.3 7.4
2016-Aug-17 20:00N 68°30' W 100°06'1514.9 010 / 191010.0 5.1 4.9 7.6
2016-Aug-17 19:00N 68°18' W 100°30'27 9.0 020 / 171009.7 6.1 6.0 8.4
2016-Aug-17 16:00N 68°30' W 101°36'4 4.4 020 / 141009.8 5.7 5.5 9.3
2016-Aug-17 15:00N 68°30' W 101°48'0 0.0 040 / 131009.5 6.4 6.2 8.6
2016-Aug-17 13:00N 68°30' W 101°48'7 6.6 030 / 151008.6 7.5 6.5 9.2
2016-Aug-17 12:00N 68°30' W 102°06'4 4.4 050 / 141008.4 8.5 6.5 8.9
2016-Aug-17 11:00N 68°30' W 102°18'21 6.9 010 / 91008.0 8.8 7.3 9.3
2016-Aug-17 08:00N 68°36' W 103°12'3110.3 060 / 61007.2 9.5 8.4 9.8
2016-Aug-17 05:00N 68°48' W 104°30'9 8.7 150 / 111006.1 10.910.7 9.4
2016-Aug-17 04:00N 68°48' W 104°54'1110.5 310 / 121005.9 10.410.1 9.5
2016-Aug-17 03:00N 68°54' W 105°18'6 6.4 300 / 111005.7 10.910.7 9.1
2016-Aug-17 02:00N 69°00' W 105°12'9 8.8 310 / 111005.1 12.511.210.3
2016-Aug-17 01:00N 69°06' W 104°54'4 4.3 320 / 91005.0 15.612.611.6
2016-Aug-17 00:00N 69°06' W 105°06'0 0.0 300 / 91004.9 15.512.6
2016-Aug-16 23:00N 69°06' W 105°06'0 0.0 270 / 91004.6 14.912.4
2016-Aug-16 20:00N 69°06' W 105°06'0 0.0 340 / 91003.9 16.512.3
2016-Aug-16 18:00N 69°06' W 105°06'0 0.0 320 / 51003.5 13.712.6
2016-Aug-16 17:00N 69°06' W 105°06'0 0.0 340 / 101003.2 12.512.1
2016-Aug-16 15:00N 69°06' W 105°06'0 0.0 320 / 101002.8 11.811.7
2016-Aug-16 13:00N 69°06' W 105°06'0 0.0 270 / 61002.6 12.611.9
2016-Aug-16 12:00N 69°06' W 105°06'0 0.0 220 / 11002.3 12.211.0
2016-Aug-16 11:00N 69°06' W 105°06'0 0.0 250 / 51002.4 12.210.8
2016-Aug-16 09:00N 69°06' W 105°06'0 0.0 240 / 21002.4 13.211.1
2016-Aug-16 08:00N 69°06' W 105°06'0 0.0 240 / 11002.5 14.111.8
2016-Aug-16 07:00N 69°06' W 105°06'0 0.0 210 / 41002.6 14.411.6
2016-Aug-16 06:00N 69°06' W 105°06'0 0.0 200 / 81002.7 15.411.4
2016-Aug-16 04:00N 69°06' W 105°06'0 0.0 150 / 121003.2 13.611.9
2016-Aug-16 03:00N 69°06' W 105°06'0 0.0 160 / 151003.3 15.012.5
2016-Aug-16 00:00N 69°06' W 105°06'0 0.0 160 / 171004.6 17.814.0
2016-Aug-15 23:00N 69°06' W 105°06'0 0.0 160 / 201004.7 18.213.9
2016-Aug-15 22:00N 69°06' W 105°06'0 0.0 150 / 221005.0 17.514.0
2016-Aug-15 20:00N 69°06' W 105°06'0 0.0 160 / 181005.8 18.713.8
2016-Aug-15 19:00N 69°06' W 105°06'0 0.0 140 / 141006.2 16.813.5
2016-Aug-15 18:00N 69°06' W 105°06'0 0.0 150 / 191006.4 16.013.0
2016-Aug-15 17:00N 69°06' W 105°06'0 0.0 150 / 141006.7 15.212.6
2016-Aug-15 16:00N 69°06' W 105°06'0 0.0 140 / 131007.1 14.612.3
2016-Aug-15 15:00N 69°06' W 105°06'0 0.0 140 / 121007.6 12.911.7
2016-Aug-15 14:00N 69°06' W 105°06'0 0.0 130 / 71008.1 11.811.0
2016-Aug-15 13:00N 69°06' W 105°06'0 0.0 120 / 71008.5 10.910.5
2016-Aug-15 12:00N 69°06' W 105°06'0 0.0 110 / 41008.6 10.610.1
2016-Aug-15 11:00N 69°06' W 105°06'0 0.0 140 / 81008.9 10.0 9.8
2016-Aug-15 10:00N 69°06' W 105°06'0 0.0 140 / 81009.2 10.0 9.9
2016-Aug-15 09:00N 69°06' W 105°06'0 0.0 140 / 81009.2 9.9 9.8
2016-Aug-15 07:00N 69°06' W 105°06'0 0.0 130 / 101009.4 10.1 9.9
2016-Aug-15 06:00N 69°06' W 105°06'0 0.0 140 / 71009.9 10.4 9.5
2016-Aug-15 04:00N 69°06' W 105°06'0 0.0 1010.2 12.5 9.4
2016-Aug-15 03:00N 69°06' W 105°06'0 0.0 240 / 31010.1 13.5 9.3
2016-Aug-15 01:00N 69°06' W 105°06'0 0.0 240 / 71010.3 13.9 9.0
2016-Aug-15 00:00N 69°06' W 105°06'0 0.0 230 / 81010.5 14.0 9.7
2016-Aug-14 23:00N 69°06' W 105°06'0 0.0 130 / 61010.6 16.8 7.4
2016-Aug-14 21:00N 69°06' W 105°06'0 0.0 130 / 51011.1 14.9 7.810.2
2016-Aug-14 20:00N 69°06' W 105°06'0 0.0 150 / 41011.4 14.9 9.010.1
2016-Aug-14 19:00N 69°06' W 105°06'4 4.3 060 / 51011.4 14.2 9.3 9.7
2016-Aug-14 18:00N 69°06' W 104°54'6 6.0 070 / 81011.7 13.0 9.2 9.2
2016-Aug-14 17:00N 69°00' W 104°54'6 2.2 060 / 101011.6 11.5 9.2 8.9
2016-Aug-14 14:00N 69°00' W 105°12'6 6.4 070 / 81012.3 9.2 8.3 8.4
2016-Aug-14 13:00N 68°54' W 105°18'0 0.0 040 / 41012.4 8.2 7.8
2016-Aug-14 10:00N 68°54' W 105°18'0 0.0 060 / 141012.5 8.7 8.0
2016-Aug-14 09:00N 68°54' W 105°18'0 0.0 060 / 141012.8 8.9 8.3
2016-Aug-14 08:00N 68°54' W 105°18'0 0.0 040 / 111012.9 8.9 7.9
2016-Aug-14 07:00N 68°54' W 105°18'0 0.0 060 / 131013.1 9.2 7.2
2016-Aug-14 06:00N 68°54' W 105°18'0 0.0 040 / 91013.4 9.5 7.5
2016-Aug-14 05:00N 68°54' W 105°18'0 0.0 060 / 81013.5 9.7 7.1
2016-Aug-14 03:00N 68°54' W 105°18'0 0.0 070 / 91013.4 9.8 7.4
2016-Aug-14 02:00N 68°54' W 105°18'0 0.0 060 / 171013.4 10.1 7.4
2016-Aug-14 00:00N 68°54' W 105°18'0 0.0 060 / 191013.5 10.1 7.5 8.2
2016-Aug-13 23:00N 68°54' W 105°18'2 1.1 060 / 161013.7 9.8 7.8 8.2
2016-Aug-13 21:00N 68°54' W 105°24'9 8.6 070 / 171013.7 9.5 7.7 8.6
2016-Aug-13 20:00N 68°54' W 105°48'19 9.7 080 / 161013.8 9.2 7.6 8.8
2016-Aug-13 18:00N 68°54' W 106°42'3110.3 070 / 181013.4 8.6 8.5 9.8
2016-Aug-13 15:00N 68°48' W 108°06'1110.6 060 / 241012.9 9.2 8.8 9.9
2016-Aug-13 14:00N 68°42' W 108°30'   060 / 241013.1 9.3 8.810.1

Dump ship's entire track history